Time;durP1;ratioP1;P1;durP2;ratioP2;P2;SDS_P1;SDS_P2;PMS_P1;PMS_P2;Temp;Humidity;BMP_temperature;BMP_pressure;BME280_temperature;BME280_humidity;BME280_pressure;Samples;Min_cycle;Max_cycle;Signal;HPM_P1;HPM_P2
2022/04/29 00:01:53;;;;;;;19.65;7.93;;;;;;;7.59;80.19;102809.16;5012547;28;20033;-76
2022/04/29 00:04:18;;;;;;;20.60;7.93;;;;;;;7.59;80.77;102820.72;5012416;28;20030;-76
2022/04/29 00:06:44;;;;;;;22.48;8.07;;;;;;;7.57;80.31;102811.88;5011942;28;20099;-76
2022/04/29 00:09:09;;;;;;;20.90;8.32;;;;;;;7.54;79.90;102820.00;5011238;28;20041;-76
2022/04/29 00:11:34;;;;;;;22.65;7.68;;;;;;;7.55;80.67;102808.34;5012406;28;20474;-76
2022/04/29 00:14:00;;;;;;;21.95;7.53;;;;;;;7.57;80.48;102803.84;5012633;28;20079;-76
2022/04/29 00:16:26;;;;;;;22.05;7.65;;;;;;;7.58;80.66;102799.34;5012192;28;20014;-76
2022/04/29 00:18:52;;;;;;;20.05;7.65;;;;;;;7.58;81.18;102805.56;5028737;28;20049;-76
2022/04/29 00:21:17;;;;;;;21.83;8.13;;;;;;;7.58;80.58;102799.34;5031748;28;20111;-76
2022/04/29 00:23:42;;;;;;;21.98;8.23;;;;;;;7.55;80.83;102799.44;5024069;28;20540;-77
2022/04/29 00:26:08;;;;;;;18.92;7.05;;;;;;;7.54;80.56;102803.94;5012178;28;20543;-77
2022/04/29 00:28:33;;;;;;;21.55;7.60;;;;;;;7.52;80.02;102805.75;5012105;28;20033;-76
2022/04/29 00:30:58;;;;;;;21.17;7.43;;;;;;;7.51;80.58;102799.53;5011923;28;20029;-76
2022/04/29 00:33:23;;;;;;;20.63;7.53;;;;;;;7.51;80.78;102804.91;5010801;28;20028;-76
2022/04/29 00:35:49;;;;;;;22.45;8.48;;;;;;;7.50;80.54;102802.25;5011938;28;20416;-76
2022/04/29 00:38:16;;;;;;;25.33;8.10;;;;;;;7.51;80.38;102798.66;5011867;28;20092;-76
2022/04/29 00:40:41;;;;;;;20.50;8.55;;;;;;;7.50;79.97;102797.78;5011844;28;20021;-76
2022/04/29 00:43:07;;;;;;;21.52;8.20;;;;;;;7.49;79.80;102801.38;5011902;28;20879;-76
2022/04/29 00:45:32;;;;;;;21.15;8.20;;;;;;;7.50;80.62;102797.78;5011936;28;20025;-76
2022/04/29 00:47:58;;;;;;;27.33;8.57;;;;;;;7.50;80.55;102792.44;5022011;28;20481;-76
2022/04/29 00:50:26;;;;;;;20.27;7.90;;;;;;;7.48;80.85;102791.59;5031482;28;20087;-76
2022/04/29 00:52:52;;;;;;;23.20;8.73;;;;;;;7.46;80.69;102788.09;5031393;28;20104;-76
2022/04/29 00:55:19;;;;;;;20.55;7.90;;;;;;;7.45;80.48;102785.44;5031459;28;20025;-76
2022/04/29 00:58:21;;;;;;;20.15;8.05;;;;;;;7.44;80.36;102781.91;5031353;28;20026;-76
2022/04/29 01:00:47;;;;;;;23.08;7.80;;;;;;;7.42;80.05;102783.72;5031550;28;20025;-76
2022/04/29 01:03:14;;;;;;;19.98;7.60;;;;;;;7.42;79.71;102788.22;5018169;28;20565;-76
2022/04/29 01:05:41;;;;;;;22.83;8.57;;;;;;;7.37;80.25;102785.69;4990149;28;20058;-77
2022/04/29 01:08:07;;;;;;;21.25;7.38;;;;;;;7.37;79.90;102790.16;4990676;28;20758;-77
2022/04/29 01:10:32;;;;;;;22.17;8.45;;;;;;;7.35;79.99;102785.72;5007005;28;20470;-77
2022/04/29 01:13:02;;;;;;;21.52;8.30;;;;;;;7.33;79.64;102774.16;4991894;28;20062;-77
2022/04/29 01:15:28;;;;;;;22.08;7.88;;;;;;;7.33;80.07;102782.19;4990560;28;20502;-77
2022/04/29 01:17:58;;;;;;;21.27;7.57;;;;;;;7.33;79.75;102778.66;5014765;28;20025;-77
2022/04/29 01:20:26;;;;;;;21.52;7.55;;;;;;;7.33;79.65;102770.63;5017621;28;20120;-77
2022/04/29 01:22:51;;;;;;;20.65;8.27;;;;;;;7.34;79.64;102770.59;5035230;28;20398;-77
2022/04/29 01:25:16;;;;;;;20.48;7.47;;;;;;;7.33;78.98;102760.81;5035244;28;20060;-76
2022/04/29 01:27:41;;;;;;;26.70;7.20;;;;;;;7.35;79.14;102758.97;5035187;28;20406;-76
2022/04/29 01:30:11;;;;;;;21.95;7.63;;;;;;;7.35;78.94;102755.44;5033858;28;20029;-76
2022/04/29 01:32:37;;;;;;;21.27;7.45;;;;;;;7.33;78.70;102752.78;5033614;28;20079;-76
2022/04/29 01:35:04;;;;;;;22.33;8.20;;;;;;;7.32;79.54;102745.69;5035026;28;20108;-76
2022/04/29 01:37:30;;;;;;;20.13;7.55;;;;;;;7.32;78.55;102751.03;5034774;28;20071;-76
2022/04/29 01:39:55;;;;;;;21.00;7.78;;;;;;;7.31;78.58;102743.94;5035020;28;20487;-76
2022/04/29 01:42:20;;;;;;;22.95;7.45;;;;;;;7.30;78.73;102744.84;5034871;28;20022;-76
2022/04/29 01:44:46;;;;;;;28.00;8.27;;;;;;;7.29;78.51;102745.78;5034923;28;20481;-76
2022/04/29 01:47:12;;;;;;;20.23;7.75;;;;;;;7.25;79.28;102746.78;5034616;28;20065;-76
2022/04/29 01:49:37;;;;;;;21.52;7.38;;;;;;;7.24;78.97;102745.03;5034847;28;20036;-76
2022/04/29 01:52:03;;;;;;;22.13;8.35;;;;;;;7.22;79.96;102743.31;5031031;28;20055;-76
2022/04/29 01:54:28;;;;;;;19.80;7.25;;;;;;;7.20;79.60;102742.50;5014943;28;20029;-76
2022/04/29 01:56:53;;;;;;;20.00;7.80;;;;;;;7.18;79.25;102742.53;5013622;28;20037;-76
2022/04/29 01:59:19;;;;;;;21.83;7.80;;;;;;;7.16;79.64;102745.25;5014891;28;20030;-76
2022/04/29 02:01:46;;;;;;;17.52;6.63;;;;;;;7.11;79.68;102746.31;5014647;28;20363;-76
2022/04/29 02:04:11;;;;;;;21.83;7.82;;;;;;;7.05;79.51;102742.00;5014749;28;20030;-76
2022/04/29 02:06:38;;;;;;;18.40;7.53;;;;;;;7.03;79.40;102745.63;5014363;28;20100;-76
2022/04/29 02:09:04;;;;;;;24.42;7.63;;;;;;;6.99;80.29;102736.84;5014891;28;20061;-76
2022/04/29 02:11:29;;;;;;;20.48;7.20;;;;;;;6.94;80.29;102746.75;5014677;28;20037;-76
2022/04/29 02:13:54;;;;;;;19.30;6.85;;;;;;;6.93;80.08;102747.69;5013293;28;20029;-76
2022/04/29 02:16:20;;;;;;;20.17;6.68;;;;;;;6.90;79.63;102748.66;5013035;28;20080;-76
2022/04/29 02:18:45;;;;;;;17.55;6.70;;;;;;;6.87;80.30;102743.41;5030253;28;20022;-76
2022/04/29 02:21:10;;;;;;;21.50;7.65;;;;;;;6.84;80.22;102743.47;5033516;28;20021;-76
2022/04/29 02:23:36;;;;;;;23.80;8.93;;;;;;;6.84;80.25;102746.16;5020676;28;20038;-76
2022/04/29 02:26:01;;;;;;;22.92;8.55;;;;;;;6.82;80.25;102739.97;4994767;28;20489;-76
2022/04/29 02:28:30;;;;;;;21.88;7.55;;;;;;;6.80;80.06;102737.31;4993361;28;20089;-76
2022/04/29 02:30:55;;;;;;;22.27;7.28;;;;;;;6.78;80.18;102741.84;4994698;28;20030;-76
2022/04/29 02:33:21;;;;;;;28.77;7.95;;;;;;;6.77;80.64;102737.41;4994703;28;20363;-76
2022/04/29 02:35:46;;;;;;;21.83;8.52;;;;;;;6.76;80.88;102737.47;4994417;28;20040;-76
2022/04/29 02:38:11;;;;;;;28.60;8.85;;;;;;;6.76;80.95;102734.78;4994522;28;20422;-76
2022/04/29 02:40:37;;;;;;;22.25;7.70;;;;;;;6.73;80.80;102730.38;4994627;28;20034;-76
2022/04/29 02:43:02;;;;;;;23.08;8.05;;;;;;;6.73;81.10;102726.84;4993233;28;20028;-76
2022/04/29 02:45:27;;;;;;;20.33;7.43;;;;;;;6.72;81.22;102733.09;4994398;28;20034;-76
2022/04/29 02:47:53;;;;;;;22.90;8.88;;;;;;;6.73;81.34;102740.22;5013297;28;20029;-76
2022/04/29 02:50:18;;;;;;;21.88;8.30;;;;;;;6.72;81.47;102733.09;5033865;28;20076;-76
2022/04/29 02:52:43;;;;;;;20.95;6.57;;;;;;;6.70;81.37;102733.16;5033657;28;20037;-76
2022/04/29 02:55:09;;;;;;;24.42;8.38;;;;;;;6.70;80.90;102730.47;5032260;28;20132;-76
2022/04/29 02:57:34;;;;;;;24.55;7.85;;;;;;;6.67;80.88;102724.34;5033546;28;20531;-76
2022/04/29 02:59:59;;;;;;;21.13;8.00;;;;;;;6.66;81.23;102734.16;5033600;28;20043;-76
2022/04/29 03:02:24;;;;;;;24.58;7.32;;;;;;;6.67;81.37;102724.34;5033286;28;20104;-76
2022/04/29 03:04:50;;;;;;;21.88;7.82;;;;;;;6.64;81.51;102723.50;5031923;28;20037;-76
2022/04/29 03:07:15;;;;;;;20.63;7.72;;;;;;;6.64;81.10;102712.81;5031621;28;20474;-76
2022/04/29 03:09:40;;;;;;;22.05;8.30;;;;;;;6.67;81.02;102711.00;5033417;28;20091;-76
2022/04/29 03:12:09;;;;;;;20.80;8.15;;;;;;;6.67;80.96;102708.31;5032385;28;20061;-78
2022/04/29 03:14:34;;;;;;;26.88;9.02;;;;;;;6.69;80.71;102706.47;5013430;28;20033;-77
2022/04/29 03:16:59;;;;;;;19.90;7.30;;;;;;;6.70;80.86;102705.56;5015588;28;20433;-76
2022/04/29 03:19:25;;;;;;;22.90;8.13;;;;;;;6.70;80.59;102697.53;5031926;28;20029;-76
2022/04/29 03:21:50;;;;;;;22.17;8.52;;;;;;;6.70;80.62;102689.53;5033036;28;20041;-76
2022/04/29 03:24:15;;;;;;;20.70;8.02;;;;;;;6.70;80.30;102708.25;5033094;28;20036;-76
2022/04/29 03:26:41;;;;;;;23.83;7.55;;;;;;;6.72;80.74;102707.28;5032982;28;20377;-76
2022/04/29 03:29:06;;;;;;;22.55;8.50;;;;;;;6.73;80.61;102710.81;5031640;28;20032;-76
2022/04/29 03:31:31;;;;;;;22.25;9.52;;;;;;;6.73;80.77;102713.50;5031572;28;20116;-76
2022/04/29 03:33:57;;;;;;;28.10;8.80;;;;;;;6.71;80.62;102710.00;5031478;28;20022;-76
2022/04/29 03:36:23;;;;;;;21.65;8.50;;;;;;;6.68;80.84;102720.75;5032839;28;20096;-76
2022/04/29 03:38:48;;;;;;;24.30;8.73;;;;;;;6.68;81.01;102726.97;5032469;28;20472;-76
2022/04/29 03:41:14;;;;;;;27.88;8.38;;;;;;;6.67;81.16;102729.69;5031188;28;20087;-76
2022/04/29 03:43:39;;;;;;;22.58;8.38;;;;;;;6.62;80.77;102724.47;5031473;28;20034;-76
2022/04/29 03:46:07;;;;;;;26.48;8.85;;;;;;;6.58;80.48;102718.31;5031329;28;20531;-76
2022/04/29 03:49:35;;;;;;;25.98;8.32;;;;;;;6.53;80.77;102706.91;5032324;28;20032;-76
2022/04/29 03:51:18;;;;;;;21.98;8.27;;;;;;;6.51;80.50;102703.38;5032275;28;20507;-76
2022/04/29 03:53:44;;;;;;;23.60;9.63;;;;;;;6.52;81.29;102701.59;5015360;28;20029;-76
2022/04/29 03:56:09;;;;;;;22.38;9.25;;;;;;;6.54;81.20;102713.09;5012712;28;20065;-76
2022/04/29 03:58:35;;;;;;;23.58;9.13;;;;;;;6.53;81.66;102714.00;5011236;28;20026;-76
2022/04/29 04:01:01;;;;;;;26.38;9.07;;;;;;;6.48;81.48;102712.34;5012374;28;20036;-76
2022/04/29 04:03:26;;;;;;;21.40;8.50;;;;;;;6.43;82.47;102708.06;5012625;28;20026;-76
2022/04/29 04:08:36;;;;;;;22.60;9.02;;;;;;;6.38;82.26;102712.63;5001196;28;20046;-76
2022/04/29 04:11:02;;;;;;;24.35;9.55;;;;;;;6.38;82.19;102720.63;5012462;28;20029;-76
2022/04/29 04:13:27;;;;;;;24.00;9.13;;;;;;;6.36;82.03;102711.81;5010966;28;20040;-76
2022/04/29 04:15:52;;;;;;;26.00;9.93;;;;;;;6.36;81.97;102714.47;5012177;28;20036;-76
2022/04/29 04:18:17;;;;;;;25.73;9.57;;;;;;;6.34;82.42;102709.19;5025264;28;20029;-76
2022/04/29 04:20:43;;;;;;;24.25;9.27;;;;;;;6.30;82.46;102703.03;5031919;28;20496;-77
2022/04/29 04:23:09;;;;;;;24.23;9.85;;;;;;;6.28;82.38;102699.53;5031940;28;20052;-77
2022/04/29 04:25:34;;;;;;;24.45;9.35;;;;;;;6.29;82.14;102701.25;5031771;28;20091;-76
2022/04/29 04:28:00;;;;;;;22.42;8.77;;;;;;;6.27;82.50;102695.09;5031832;28;20112;-76
2022/04/29 04:30:25;;;;;;;24.13;9.27;;;;;;;6.27;82.65;102697.75;5031932;28;20075;-76
2022/04/29 04:32:51;;;;;;;20.30;8.68;;;;;;;6.23;82.78;102692.53;5031639;28;20064;-76
2022/04/29 04:35:17;;;;;;;22.50;9.43;;;;;;;6.21;83.18;102699.69;5030467;28;20034;-76
2022/04/29 04:37:43;;;;;;;26.60;9.55;;;;;;;6.20;83.04;102700.63;5030310;28;20029;-76
2022/04/29 04:40:10;;;;;;;22.95;9.30;;;;;;;6.16;82.69;102697.16;5031723;28;20080;-76
2022/04/29 04:42:45;;;;;;;21.40;8.02;;;;;;;6.17;83.13;102690.91;5017910;28;20030;-76
2022/04/29 04:45:10;;;;;;;25.23;10.13;;;;;;;6.15;83.16;102690.06;5011713;28;20397;-76
2022/04/29 04:47:36;;;;;;;22.35;9.40;;;;;;;6.12;83.34;102687.47;5019035;28;20034;-76
2022/04/29 04:50:01;;;;;;;21.77;9.10;;;;;;;6.11;83.09;102696.41;5031552;28;20033;-76
2022/04/29 04:52:26;;;;;;;28.58;11.05;;;;;;;6.10;82.90;102694.63;5030753;28;20036;-76
2022/04/29 04:54:51;;;;;;;25.75;9.70;;;;;;;6.11;82.78;102697.25;5031403;28;20029;-76
2022/04/29 04:57:17;;;;;;;22.70;10.05;;;;;;;6.10;83.84;102686.63;5030128;28;20033;-76
2022/04/29 04:59:42;;;;;;;23.83;9.75;;;;;;;6.11;83.70;102685.72;5031526;28;20037;-76
2022/04/29 05:02:07;;;;;;;23.20;9.00;;;;;;;6.12;83.74;102690.16;5031223;28;20033;-76
2022/04/29 05:04:33;;;;;;;25.73;11.00;;;;;;;6.12;83.37;102691.03;5030142;28;20033;-76
2022/04/29 05:06:58;;;;;;;25.35;9.45;;;;;;;6.15;84.19;102692.75;5030983;28;20484;-76
2022/04/29 05:09:23;;;;;;;24.25;9.75;;;;;;;6.17;84.21;102690.91;5029963;28;20033;-76
2022/04/29 05:11:49;;;;;;;24.17;9.52;;;;;;;6.20;84.13;102688.16;5031182;28;20401;-76
2022/04/29 05:14:14;;;;;;;23.98;9.88;;;;;;;6.23;84.12;102688.06;5013111;28;20058;-76
2022/04/29 05:16:39;;;;;;;26.98;10.77;;;;;;;6.30;83.43;102694.13;5010297;28;20038;-76
2022/04/29 05:19:05;;;;;;;23.80;9.85;;;;;;;6.33;83.04;102691.38;5029532;28;20033;-76
2022/04/29 05:21:30;;;;;;;23.88;9.80;;;;;;;6.36;83.17;102691.31;5031029;28;20062;-76
2022/04/29 05:23:56;;;;;;;25.90;10.35;;;;;;;6.38;82.18;102691.25;5029295;28;20052;-76
2022/04/29 05:26:22;;;;;;;24.27;10.77;;;;;;;6.41;82.26;102693.84;5030226;28;20475;-76
2022/04/29 05:28:47;;;;;;;25.13;9.93;;;;;;;6.45;82.43;102701.72;5031095;28;20037;-76
2022/04/29 05:31:13;;;;;;;23.83;10.30;;;;;;;6.47;82.22;102697.25;5031084;28;20099;-76
2022/04/29 05:33:39;;;;;;;25.83;11.00;;;;;;;6.50;81.61;102701.66;5029675;28;20148;-76
2022/04/29 05:36:06;;;;;;;24.73;9.80;;;;;;;6.52;81.74;102694.44;5030947;28;20104;-76
2022/04/29 05:43:59;;;;;;;25.58;10.00;;;;;;;6.64;81.48;102695.91;5031402;28;20037;-76
2022/04/29 05:46:24;;;;;;;24.50;11.55;;;;;;;6.68;81.93;102704.72;5029464;28;20385;-76
2022/04/29 05:48:50;;;;;;;28.55;11.23;;;;;;;6.71;82.00;102702.84;5029548;28;20083;-76
2022/04/29 05:51:15;;;;;;;26.45;10.27;;;;;;;6.76;80.91;102708.06;5030774;28;20033;-76
2022/04/29 05:53:40;;;;;;;23.63;11.15;;;;;;;6.79;80.69;102713.31;5030885;28;20033;-76
2022/04/29 05:56:05;;;;;;;25.60;10.65;;;;;;;6.81;80.52;102707.03;5029442;28;20021;-76
2022/04/29 05:58:31;;;;;;;24.77;11.18;;;;;;;6.83;81.45;102710.50;5029534;28;20059;-76
2022/04/29 06:00:58;;;;;;;24.42;10.55;;;;;;;6.87;80.75;102711.31;5029472;28;20460;-76
2022/04/29 06:03:23;;;;;;;31.00;10.73;;;;;;;6.90;80.16;102716.56;5015123;28;20026;-76
2022/04/29 06:05:48;;;;;;;25.83;11.45;;;;;;;6.95;80.14;102721.78;5014282;28;20054;-76
2022/04/29 06:08:14;;;;;;;26.42;12.10;;;;;;;6.98;79.98;102706.56;5013388;28;20116;-76
2022/04/29 06:10:39;;;;;;;33.20;12.23;;;;;;;7.03;79.90;102706.44;5013461;28;20029;-77
2022/04/29 06:13:05;;;;;;;27.52;11.05;;;;;;;7.11;80.58;102715.09;5013252;28;20030;-77
2022/04/29 06:15:31;;;;;;;28.08;11.18;;;;;;;7.12;78.94;102722.19;5013265;28;20046;-77
2022/04/29 06:17:56;;;;;;;23.20;9.70;;;;;;;7.17;79.56;102714.03;5024432;28;20044;-77
2022/04/29 06:20:21;;;;;;;24.27;11.38;;;;;;;7.22;79.17;102722.81;5034203;28;20071;-77
2022/04/29 06:22:47;;;;;;;29.77;12.10;;;;;;;7.25;79.10;102721.84;5032695;28;20025;-77
2022/04/29 06:25:13;;;;;;;26.52;11.52;;;;;;;7.27;78.09;102718.19;5034282;28;20167;-77
2022/04/29 06:27:38;;;;;;;26.45;11.27;;;;;;;7.33;79.04;102715.34;5034124;28;20026;-77
2022/04/29 06:30:05;;;;;;;25.27;11.43;;;;;;;7.39;78.66;102724.09;5032841;28;20767;-77
2022/04/29 06:32:30;;;;;;;26.67;11.50;;;;;;;7.42;77.99;102724.00;5032476;28;20032;-77
2022/04/29 06:34:55;;;;;;;28.00;10.70;;;;;;;7.46;77.96;102728.34;5034049;28;20029;-77
2022/04/29 06:37:21;;;;;;;27.85;11.95;;;;;;;7.48;76.83;102731.84;5032402;28;20025;-77
2022/04/29 06:39:46;;;;;;;26.58;11.70;;;;;;;7.52;77.37;102736.19;5032561;28;20084;-77
2022/04/29 06:42:12;;;;;;;31.08;11.23;;;;;;;7.56;78.47;102727.16;5024590;28;20049;-77
2022/04/29 06:44:37;;;;;;;28.52;12.38;;;;;;;7.62;78.30;102735.00;5014093;28;20101;-77
2022/04/29 06:47:03;;;;;;;30.30;12.55;;;;;;;7.67;77.23;102725.03;5016476;28;20072;-77
2022/04/29 06:49:28;;;;;;;25.17;10.82;;;;;;;7.73;77.22;102720.41;5033639;28;20033;-77
2022/04/29 06:51:53;;;;;;;26.17;11.98;;;;;;;7.76;77.67;102722.97;5033664;28;20033;-77
2022/04/29 06:54:18;;;;;;;28.67;11.75;;;;;;;7.78;76.38;102731.84;5033670;28;20393;-77
2022/04/29 06:56:44;;;;;;;31.08;12.13;;;;;;;7.79;76.77;102730.91;5033664;28;20103;-77
2022/04/29 06:59:09;;;;;;;30.05;11.95;;;;;;;7.82;77.04;102741.53;5033555;28;20042;-77
2022/04/29 07:01:34;;;;;;;25.35;11.82;;;;;;;7.84;76.98;102737.00;5033346;28;20025;-77
2022/04/29 07:04:00;;;;;;;26.05;11.75;;;;;;;7.89;76.13;102745.75;5033517;28;20029;-77
2022/04/29 07:06:25;;;;;;;28.17;11.90;;;;;;;7.90;76.74;102739.47;5032742;28;20053;-77
2022/04/29 07:08:50;;;;;;;24.48;11.55;;;;;;;7.97;76.66;102743.72;5033389;28;20105;-77
2022/04/29 07:11:16;;;;;;;26.25;11.85;;;;;;;7.99;76.83;102732.97;5015475;28;20034;-77
2022/04/29 07:13:43;;;;;;;27.58;12.38;;;;;;;8.04;76.63;102737.25;5017668;28;20487;-77
2022/04/29 07:16:09;;;;;;;26.63;11.07;;;;;;;8.11;76.74;102742.41;5011889;28;20037;-77
2022/04/29 07:18:36;;;;;;;25.38;12.63;;;;;;;8.17;78.55;102747.53;5028773;28;20029;-77
2022/04/29 07:21:02;;;;;;;28.85;13.20;;;;;;;8.21;76.98;102738.50;5032973;28;20029;-76
2022/04/29 07:23:27;;;;;;;28.15;13.90;;;;;;;8.32;78.49;102736.34;5031786;28;20021;-76
2022/04/29 07:25:52;;;;;;;26.27;12.82;;;;;;;8.44;77.74;102736.88;5033171;28;20028;-76
2022/04/29 07:28:18;;;;;;;29.58;13.63;;;;;;;8.52;78.03;102730.34;5032989;28;20025;-76
2022/04/29 07:30:43;;;;;;;31.45;13.23;;;;;;;8.65;77.62;102743.31;5031575;28;20033;-76
2022/04/29 07:33:09;;;;;;;27.10;12.20;;;;;;;8.71;75.29;102735.94;5032873;28;20029;-76
2022/04/29 07:43:46;;;;;;;24.85;12.50;;;;;;;9.05;75.81;102734.72;5033137;28;20044;-77
2022/04/29 07:46:11;;;;;;;29.25;14.77;;;;;;;9.11;76.22;102733.63;5031206;28;20021;-77
2022/04/29 07:48:36;;;;;;;28.80;14.25;;;;;;;9.17;76.09;102732.53;5031133;28;20026;-77
2022/04/29 07:51:02;;;;;;;34.25;12.27;;;;;;;9.24;74.24;102731.38;5032414;28;20121;-77
2022/04/29 07:53:27;;;;;;;28.05;12.70;;;;;;;9.31;74.03;102737.38;5032430;28;20100;-77
2022/04/29 07:55:52;;;;;;;27.38;12.85;;;;;;;9.37;73.45;102734.44;5031159;28;20047;-77
2022/04/29 07:58:18;;;;;;;28.60;14.48;;;;;;;9.39;74.92;102732.59;5032337;28;20105;-77
2022/04/29 08:00:43;;;;;;;31.67;14.20;;;;;;;9.39;73.14;102732.59;5032240;28;20025;-77
2022/04/29 08:03:09;;;;;;;25.85;12.88;;;;;;;9.42;74.39;102735.16;5015533;28;20030;-77
2022/04/29 08:05:34;;;;;;;28.15;14.25;;;;;;;9.49;74.65;102741.16;5012180;28;20081;-77
2022/04/29 08:08:00;;;;;;;28.58;13.05;;;;;;;9.53;72.60;102737.41;5012430;28;20109;-77
2022/04/29 08:10:27;;;;;;;31.58;13.35;;;;;;;9.61;72.46;102738.88;5012497;28;20026;-77
2022/04/29 08:12:53;;;;;;;30.40;14.32;;;;;;;9.66;72.78;102741.38;5012411;28;20385;-77
2022/04/29 08:15:19;;;;;;;27.45;12.18;;;;;;;9.71;72.79;102739.41;5012309;28;20025;-77
2022/04/29 08:17:45;;;;;;;29.77;14.57;;;;;;;9.76;73.67;102741.91;5020752;28;20083;-77
2022/04/29 08:20:11;;;;;;;33.33;13.30;;;;;;;9.80;73.93;102730.97;5030692;28;20120;-77
2022/04/29 08:22:36;;;;;;;26.92;13.68;;;;;;;9.84;72.00;102738.91;5032129;28;20155;-77
2022/04/29 08:25:02;;;;;;;29.25;13.65;;;;;;;9.87;73.46;102742.34;5031971;28;20033;-77
2022/04/29 08:27:28;;;;;;;30.58;14.40;;;;;;;9.90;71.43;102744.03;5031724;28;20120;-77
2022/04/29 08:29:53;;;;;;;32.13;14.48;;;;;;;9.90;71.65;102744.03;5030539;28;20030;-77
2022/04/29 08:32:18;;;;;;;28.80;13.45;;;;;;;9.93;72.72;102749.28;5031724;28;20039;-77
2022/04/29 08:34:44;;;;;;;28.52;13.45;;;;;;;9.96;72.93;102749.16;5032062;28;20025;-77
2022/04/29 08:37:09;;;;;;;30.75;13.50;;;;;;;9.96;72.75;102750.03;5031495;28;20048;-77
2022/04/29 08:39:34;;;;;;;27.90;13.13;;;;;;;9.97;71.84;102753.56;5030683;28;20037;-76
2022/04/29 08:42:02;;;;;;;31.85;14.30;;;;;;;9.96;72.26;102754.53;5022685;28;20030;-76
2022/04/29 08:44:30;;;;;;;28.90;12.90;;;;;;;9.96;72.34;102749.16;5011880;28;20029;-76
2022/04/29 08:46:56;;;;;;;30.25;13.60;;;;;;;10.00;72.55;102745.44;5013556;28;20413;-76
2022/04/29 08:49:23;;;;;;;30.23;14.88;;;;;;;10.07;72.90;102748.72;5031613;28;20055;-76
2022/04/29 08:51:48;;;;;;;29.95;14.85;;;;;;;10.13;71.67;102741.28;5031634;28;20044;-76
2022/04/29 08:58:36;;;;;;;34.00;14.98;;;;;;;10.18;71.91;102740.25;5031605;28;20489;-76
2022/04/29 08:59:47;;;;;;;39.20;14.20;;;;;;;10.32;72.71;102730.66;5031767;28;20032;-76
2022/04/29 09:02:13;;;;;;;34.53;13.90;;;;;;;10.40;71.51;102716.06;5031412;28;20029;-76
2022/04/29 09:04:39;;;;;;;31.40;14.80;;;;;;;10.45;71.66;102725.66;5031317;28;20435;-76
2022/04/29 09:07:05;;;;;;;29.08;13.30;;;;;;;10.48;71.08;102727.34;5029780;28;20061;-76
2022/04/29 09:09:30;;;;;;;31.17;13.00;;;;;;;10.53;71.29;102732.50;5031469;28;20051;-76
2022/04/29 09:12:18;;;;;;;35.08;13.98;;;;;;;10.61;71.98;102742.00;5031309;28;20104;-76
2022/04/29 09:14:43;;;;;;;28.30;14.02;;;;;;;10.61;70.99;102742.00;5031240;28;20107;-76
2022/04/29 09:17:26;;;;;;;31.38;14.00;;;;;;;10.67;71.20;102743.53;5029868;28;20053;-76
2022/04/29 09:19:51;;;;;;;29.23;14.02;;;;;;;10.66;71.41;102742.69;5029972;28;20483;-76
2022/04/29 09:22:16;;;;;;;25.98;13.55;;;;;;;10.72;71.07;102738.84;5029790;28;20041;-76
2022/04/29 09:24:41;;;;;;;29.95;13.73;;;;;;;10.79;71.60;102745.72;5031126;28;20022;-76
2022/04/29 09:27:07;;;;;;;28.05;13.70;;;;;;;10.89;71.00;102748.84;5031055;28;20034;-76
2022/04/29 09:29:42;;;;;;;32.35;13.75;;;;;;;10.97;70.38;102753.91;5031133;28;20362;-76
2022/04/29 09:32:08;;;;;;;33.42;14.05;;;;;;;11.08;71.89;102745.34;5016072;28;20393;-76
2022/04/29 09:34:44;;;;;;;26.55;13.48;;;;;;;11.11;70.85;102750.59;5011550;28;20481;-76
2022/04/29 09:37:17;;;;;;;34.22;14.20;;;;;;;11.10;70.81;102760.50;5011758;28;20481;-76
2022/04/29 09:39:56;;;;;;;28.98;12.82;;;;;;;11.10;69.87;102749.72;5015342;28;20490;-76
2022/04/29 09:42:22;;;;;;;29.67;13.00;;;;;;;11.09;69.91;102758.75;5015176;28;20030;-76
2022/04/29 09:44:48;;;;;;;28.23;12.75;;;;;;;11.14;70.68;102751.34;5013858;28;20720;-76
2022/04/29 09:47:15;;;;;;;28.63;14.18;;;;;;;11.19;70.45;102743.06;5018114;28;20107;-76
2022/04/29 09:49:50;;;;;;;27.60;13.30;;;;;;;11.15;69.95;102749.50;5033537;28;20075;-76
2022/04/29 09:52:18;;;;;;;26.00;12.80;;;;;;;11.12;69.48;102745.13;5001629;28;20120;-76
2022/04/29 09:54:43;;;;;;;27.95;13.80;;;;;;;11.14;70.70;102737.00;5033545;28;20392;-76
2022/04/29 09:57:11;;;;;;;33.30;13.90;;;;;;;11.12;71.03;102739.75;5034666;28;20043;-76
2022/04/29 09:59:40;;;;;;;29.63;14.10;;;;;;;11.09;69.72;102742.59;5034719;28;20106;-76
2022/04/29 10:02:07;;;;;;;27.63;13.02;;;;;;;11.06;69.91;102726.59;5027757;28;20076;-77
2022/04/29 10:04:44;;;;;;;29.30;12.90;;;;;;;11.02;69.79;102728.56;5014843;28;20017;-77
2022/04/29 10:07:12;;;;;;;28.83;13.65;;;;;;;11.05;70.36;102735.59;5013155;28;20551;-77
2022/04/29 10:09:42;;;;;;;28.27;13.68;;;;;;;11.08;70.37;102739.97;5014571;28;20036;-77
2022/04/29 10:12:13;;;;;;;35.30;14.10;;;;;;;11.10;70.43;102738.06;5013698;28;20070;-77
2022/04/29 10:14:40;;;;;;;29.38;13.25;;;;;;;11.08;70.53;102729.22;5014656;28;20063;-77
2022/04/29 10:22:46;;;;;;;30.40;13.27;;;;;;;11.09;71.67;102717.50;5034186;28;20091;-77
2022/04/29 10:25:12;;;;;;;31.38;14.00;;;;;;;11.10;70.70;102716.53;5033433;28;20073;-77
2022/04/29 10:27:42;;;;;;;37.03;14.25;;;;;;;11.13;71.46;102709.22;5033117;28;20104;-77
2022/04/29 10:30:08;;;;;;;30.65;14.20;;;;;;;11.21;71.17;102729.53;5034126;28;20381;-77
2022/04/29 10:33:00;;;;;;;26.90;13.63;;;;;;;11.25;70.57;102715.00;5034025;28;20037;-77
2022/04/29 10:35:42;;;;;;;39.92;14.60;;;;;;;11.28;70.44;102722.91;5032668;28;20018;-77
2022/04/29 10:38:39;;;;;;;31.75;12.98;;;;;;;11.32;70.17;102719.16;5032552;28;20056;-76
2022/04/29 10:41:23;;;;;;;29.08;12.85;;;;;;;11.35;70.92;102721.69;5032652;28;20029;-76
2022/04/29 10:43:51;;;;;;;27.73;13.90;;;;;;;11.38;70.59;102726.94;5032661;28;20029;-76
2022/04/29 10:46:23;;;;;;;28.23;14.07;;;;;;;11.45;70.40;102714.03;5032246;28;20552;-76
2022/04/29 10:48:51;;;;;;;26.23;14.00;;;;;;;11.47;69.49;102715.72;5032574;28;20030;-76
2022/04/29 10:51:25;;;;;;;31.38;13.32;;;;;;;11.49;70.76;102710.25;5020870;28;20466;-76
2022/04/29 10:53:52;;;;;;;26.42;12.00;;;;;;;11.49;69.29;102719.22;4992998;28;20034;-76
2022/04/29 10:56:30;;;;;;;28.27;13.63;;;;;;;11.58;68.91;102715.22;4994155;28;20140;-76
2022/04/29 10:59:05;;;;;;;26.05;12.35;;;;;;;11.62;67.22;102713.25;4994243;28;20103;-76
2022/04/29 11:01:33;;;;;;;29.45;12.85;;;;;;;11.63;68.36;102702.41;4993930;28;20080;-76
2022/04/29 11:03:59;;;;;;;27.13;13.00;;;;;;;11.69;68.15;102698.53;4994258;28;20038;-76
2022/04/29 11:06:44;;;;;;;25.63;12.75;;;;;;;11.74;68.78;102706.41;4993704;28;20054;-76
2022/04/29 11:09:26;;;;;;;26.08;12.45;;;;;;;11.77;69.35;102696.38;4994212;28;20034;-76
2022/04/29 11:11:52;;;;;;;27.30;12.57;;;;;;;11.77;68.97;102701.75;4994030;28;20026;-76
2022/04/29 11:14:17;;;;;;;28.65;12.80;;;;;;;11.80;70.24;102698.91;4993983;28;20394;-76
2022/04/29 11:17:06;;;;;;;31.45;13.15;;;;;;;11.82;69.90;102698.81;4993800;28;20022;-76
2022/04/29 11:19:40;;;;;;;33.25;13.45;;;;;;;11.85;69.67;102702.22;5017290;28;20033;-76
2022/04/29 11:24:51;;;;;;;29.88;12.00;;;;;;;11.97;68.79;102698.09;5033192;28;20083;-76
2022/04/29 11:27:27;;;;;;;28.90;13.77;;;;;;;12.07;68.81;102698.50;5032921;28;20400;-76
2022/04/29 11:29:54;;;;;;;23.52;11.35;;;;;;;12.13;68.32;102702.72;5031466;28;20052;-76
2022/04/29 11:32:23;;;;;;;25.55;12.50;;;;;;;12.17;67.80;102694.41;5015281;28;20048;-76
2022/04/29 11:34:53;;;;;;;27.13;12.52;;;;;;;12.23;68.81;102693.22;5012318;28;20036;-76
2022/04/29 11:37:23;;;;;;;29.73;12.38;;;;;;;12.36;67.69;102691.63;5013122;28;20026;-76
2022/04/29 11:39:48;;;;;;;;;;;;;;;12.46;68.60;102692.03;5013480;28;20029;-76
2022/04/29 11:42:17;;;;;;;26.20;11.93;;;;;;;12.55;67.70;102682.59;5013100;28;19916;-76
2022/04/29 11:44:44;;;;;;;25.33;11.30;;;;;;;12.63;66.83;102690.28;5011687;28;20052;-76
2022/04/29 11:47:09;;;;;;;25.38;10.95;;;;;;;12.70;65.38;102697.97;5016273;28;20473;-76